createdAt,value
2023-09-30T00:06:28.522Z,7.07
2023-09-30T00:16:30.769Z,8.20
2023-09-30T00:26:39.715Z,6.80
2023-09-30T00:36:49.100Z,7.38
2023-09-30T00:46:57.090Z,7.60
2023-09-30T00:57:03.137Z,8.13
2023-09-30T01:07:07.613Z,7.40
2023-09-30T01:17:15.359Z,7.30
2023-09-30T01:27:24.871Z,7.63
2023-09-30T01:37:29.538Z,6.90
2023-09-30T01:47:34.159Z,7.13
2023-09-30T01:57:36.882Z,7.25
2023-09-30T02:07:42.474Z,7.63
2023-09-30T02:17:47.496Z,6.78
2023-09-30T02:27:52.226Z,6.95
2023-09-30T02:37:55.561Z,7.32
2023-09-30T02:48:01.302Z,7.45
2023-09-30T02:58:06.357Z,22.20
2023-09-30T03:08:13.135Z,9.32
2023-09-30T03:18:19.037Z,7.68
2023-09-30T03:28:25.832Z,7.57
2023-09-30T03:38:34.245Z,6.95
2023-09-30T03:48:44.253Z,7.15
2023-09-30T03:58:46.493Z,6.90
2023-09-30T04:08:52.635Z,8.10
2023-09-30T04:18:54.919Z,7.40
2023-09-30T04:29:12.179Z,6.82
2023-09-30T04:39:16.073Z,7.00
2023-09-30T04:49:20.943Z,6.78
2023-09-30T04:59:26.660Z,6.68
2023-09-30T05:09:30.208Z,6.50
2023-09-30T05:19:33.543Z,6.40
2023-09-30T05:29:35.753Z,5.97
2023-09-30T05:39:38.669Z,5.72
2023-09-30T05:49:41.962Z,5.30
2023-09-30T05:59:44.400Z,6.07
2023-09-30T06:09:46.769Z,5.78
2023-09-30T06:19:51.877Z,6.03
2023-09-30T06:29:54.339Z,5.93
2023-09-30T06:40:02.433Z,6.80
2023-09-30T06:50:09.507Z,8.13
2023-09-30T07:00:15.097Z,8.63
2023-09-30T07:10:21.811Z,8.85
2023-09-30T07:20:29.421Z,8.45
2023-09-30T07:30:34.016Z,9.48
2023-09-30T07:40:39.384Z,9.77
2023-09-30T07:50:44.572Z,11.00
2023-09-30T08:00:47.285Z,11.10
2023-09-30T08:10:51.405Z,11.40
2023-09-30T08:20:57.919Z,12.15
2023-09-30T08:31:10.603Z,11.98
2023-09-30T08:41:30.321Z,12.63
2023-09-30T08:51:34.511Z,12.25
2023-09-30T09:01:39.160Z,13.30
2023-09-30T09:11:41.526Z,13.65
2023-09-30T09:22:06.010Z,13.50
2023-09-30T09:32:20.811Z,14.40
2023-09-30T09:42:51.885Z,15.10
2023-09-30T09:52:56.641Z,15.85
2023-09-30T10:03:01.418Z,16.55
2023-09-30T10:13:10.752Z,17.48
2023-09-30T10:23:28.221Z,15.32
2023-09-30T10:33:34.903Z,13.65
2023-09-30T10:43:44.031Z,7.25
2023-09-30T10:53:48.607Z,6.60
2023-09-30T11:04:06.162Z,3.70
2023-09-30T11:14:38.497Z,4.57
2023-09-30T11:24:47.547Z,2.80
2023-09-30T11:34:50.651Z,2.80
2023-09-30T11:44:52.981Z,2.83
2023-09-30T11:55:02.602Z,2.70
2023-09-30T12:05:12.860Z,3.75
2023-09-30T12:15:23.706Z,2.65
2023-09-30T12:25:26.814Z,3.13
2023-09-30T12:35:34.579Z,2.90
2023-09-30T12:45:44.250Z,3.33
2023-09-30T12:55:56.007Z,3.03
2023-09-30T13:05:58.749Z,2.60
2023-09-30T13:16:02.414Z,2.80
2023-09-30T13:26:10.552Z,2.28
2023-09-30T13:36:13.197Z,2.65
2023-09-30T13:46:17.855Z,2.38
2023-09-30T13:56:20.891Z,3.17
2023-09-30T14:06:25.410Z,2.25
2023-09-30T14:16:32.747Z,2.58
2023-09-30T14:26:37.887Z,2.42
2023-09-30T14:36:42.309Z,2.20
2023-09-30T14:46:47.639Z,2.38
2023-09-30T14:56:53.256Z,2.20
2023-09-30T15:06:58.492Z,2.35
2023-09-30T15:17:05.545Z,2.65
2023-09-30T15:27:12.908Z,2.20
2023-09-30T15:37:17.671Z,1.70
2023-09-30T15:47:23.285Z,2.13
2023-09-30T15:57:29.379Z,2.50
2023-09-30T16:07:35.148Z,2.33
2023-09-30T16:17:40.430Z,2.25
2023-09-30T16:27:43.870Z,3.30
2023-09-30T16:37:49.594Z,2.97
2023-09-30T16:47:52.925Z,2.40
2023-09-30T16:57:57.575Z,3.00
2023-09-30T17:08:03.611Z,3.35
2023-09-30T17:18:05.871Z,3.35
2023-09-30T17:28:13.853Z,3.40
2023-09-30T17:38:18.377Z,3.55
2023-09-30T17:48:23.473Z,3.85
2023-09-30T17:58:31.872Z,3.42
2023-09-30T18:08:39.897Z,3.00
2023-09-30T18:18:45.258Z,3.35
2023-09-30T18:28:48.336Z,3.28
2023-09-30T18:38:54.532Z,3.80
2023-09-30T18:48:57.589Z,2.95
2023-09-30T18:59:01.471Z,3.60
2023-09-30T19:09:09.312Z,3.30
2023-09-30T19:19:15.266Z,3.80
2023-09-30T19:29:20.841Z,3.63
2023-09-30T19:39:27.279Z,3.40
2023-09-30T19:49:31.788Z,3.30
2023-09-30T19:59:45.002Z,3.58
2023-09-30T20:09:52.613Z,3.97
2023-09-30T20:19:58.776Z,2.60
2023-09-30T20:30:05.019Z,2.78
2023-09-30T20:40:08.662Z,3.33
2023-09-30T20:50:15.636Z,2.83
2023-09-30T21:00:20.912Z,3.22
2023-09-30T21:10:25.807Z,3.42
2023-09-30T21:20:28.438Z,3.30
2023-09-30T21:30:37.502Z,3.35
2023-09-30T21:40:45.020Z,3.50
2023-09-30T21:50:47.301Z,4.30
2023-09-30T22:00:55.910Z,4.00
2023-09-30T22:11:01.063Z,3.53
2023-09-30T22:21:03.634Z,3.40
2023-09-30T22:31:08.370Z,3.67
2023-09-30T22:41:16.509Z,4.07
2023-09-30T22:51:19.693Z,3.47
2023-09-30T23:01:25.918Z,3.63
2023-09-30T23:11:31.725Z,4.10
2023-09-30T23:21:38.102Z,4.57
2023-09-30T23:31:47.392Z,3.70
2023-09-30T23:41:55.778Z,4.53
2023-09-30T23:52:01.818Z,4.00
